createdAt,value
2019-01-02T00:00:22.633Z,4.28
2019-01-02T00:02:51.617Z,5.30
2019-01-02T00:05:20.855Z,4.28
2019-01-02T00:07:49.935Z,6.58
2019-01-02T00:10:19.362Z,5.28
2019-01-02T00:12:48.536Z,4.08
2019-01-02T00:15:18.043Z,3.95
2019-01-02T00:17:47.328Z,4.33
2019-01-02T00:20:16.610Z,4.72
2019-01-02T00:22:45.603Z,3.65
2019-01-02T00:25:14.564Z,5.28
2019-01-02T00:27:43.438Z,5.03
2019-01-02T00:30:12.356Z,4.62
2019-01-02T00:32:41.657Z,4.58
2019-01-02T00:35:10.512Z,6.87
2019-01-02T00:37:39.767Z,4.50
2019-01-02T00:40:10.049Z,7.60
2019-01-02T00:42:40.656Z,4.95
2019-01-02T00:45:09.712Z,5.78
2019-01-02T00:47:38.971Z,4.75
2019-01-02T00:50:10.238Z,5.35
2019-01-02T00:52:39.575Z,6.47
2019-01-02T00:55:09.001Z,6.30
2019-01-02T00:57:38.426Z,6.40
2019-01-02T01:00:12.735Z,7.72
2019-01-02T01:02:42.020Z,5.28
2019-01-02T01:05:10.909Z,6.08
2019-01-02T01:07:40.349Z,6.20
2019-01-02T01:10:12.491Z,7.87
2019-01-02T01:12:41.746Z,6.62
2019-01-02T01:15:10.673Z,7.37
2019-01-02T01:17:40.143Z,5.33
2019-01-02T01:20:10.307Z,4.93
2019-01-02T01:22:39.460Z,6.92
2019-01-02T01:25:08.287Z,6.35
2019-01-02T01:27:37.194Z,6.42
2019-01-02T01:30:07.911Z,6.25
2019-01-02T01:32:36.879Z,6.97
2019-01-02T01:35:07.218Z,6.67
2019-01-02T01:37:36.613Z,6.75
2019-01-02T01:40:09.176Z,6.53
2019-01-02T01:42:38.095Z,6.15
2019-01-02T01:45:08.912Z,6.65
2019-01-02T01:47:37.805Z,5.83
2019-01-02T01:50:07.911Z,6.35
2019-01-02T01:52:36.848Z,6.58
2019-01-02T01:55:06.147Z,6.80
2019-01-02T01:57:35.564Z,6.13
2019-01-02T02:00:07.457Z,6.12
2019-01-02T02:02:36.657Z,6.05
2019-01-02T02:05:06.007Z,5.00
2019-01-02T02:07:34.858Z,6.28
2019-01-02T02:10:05.211Z,6.87
2019-01-02T02:12:34.066Z,5.20
2019-01-02T02:15:03.061Z,5.45
2019-01-02T02:17:31.976Z,6.00
2019-01-02T02:20:00.844Z,5.53
2019-01-02T02:22:30.173Z,6.30
2019-01-02T02:24:59.052Z,5.30
2019-01-02T02:27:27.942Z,6.37
2019-01-02T02:29:57.213Z,6.05
2019-01-02T02:32:26.105Z,5.22
2019-01-02T02:34:55.267Z,5.93
2019-01-02T02:37:24.171Z,6.00
2019-01-02T02:39:53.071Z,5.03
2019-01-02T02:42:21.912Z,5.60
2019-01-02T02:44:51.224Z,3.87
2019-01-02T02:47:20.436Z,4.90
2019-01-02T02:49:49.828Z,5.33
2019-01-02T02:52:18.602Z,4.22
2019-01-02T02:54:47.422Z,4.95
2019-01-02T02:57:16.300Z,5.58
2019-01-02T02:59:45.141Z,4.90
2019-01-02T03:02:14.041Z,4.85
2019-01-02T03:04:43.482Z,4.55
2019-01-02T03:07:12.751Z,4.75
2019-01-02T03:09:42.166Z,4.30
2019-01-02T03:12:11.421Z,5.12
2019-01-02T03:14:40.344Z,4.58
2019-01-02T03:17:09.311Z,4.17
2019-01-02T03:19:38.714Z,3.92
2019-01-02T03:22:07.976Z,4.05
2019-01-02T03:24:37.247Z,3.65
2019-01-02T03:27:06.678Z,3.37
2019-01-02T03:29:35.548Z,2.55
2019-01-02T03:32:04.877Z,4.78
2019-01-02T03:34:34.272Z,4.65
2019-01-02T03:37:03.157Z,4.12
2019-01-02T03:39:32.035Z,4.08
2019-01-02T03:42:00.920Z,2.72
2019-01-02T03:44:29.836Z,3.80
2019-01-02T03:46:58.750Z,3.02
2019-01-02T03:49:27.686Z,3.37
2019-01-02T03:51:56.538Z,2.90
2019-01-02T03:54:25.443Z,3.10
2019-01-02T03:56:54.262Z,3.25
2019-01-02T03:59:23.110Z,2.65
2019-01-02T04:01:52.003Z,2.58
2019-01-02T04:04:20.911Z,2.33
2019-01-02T04:06:49.870Z,2.90
2019-01-02T04:09:18.660Z,2.20
2019-01-02T04:11:47.548Z,2.72
2019-01-02T04:14:16.418Z,2.25
2019-01-02T04:16:45.263Z,2.10
2019-01-02T04:19:14.047Z,2.05
2019-01-02T04:21:42.875Z,2.40
2019-01-02T04:24:11.759Z,2.37
2019-01-02T04:26:40.543Z,2.57
2019-01-02T04:29:09.500Z,2.37
2019-01-02T04:31:38.355Z,2.67
2019-01-02T04:34:07.309Z,2.30
2019-01-02T04:36:36.247Z,2.02
2019-01-02T04:39:06.699Z,2.02
2019-01-02T04:41:35.584Z,2.42
2019-01-02T04:44:04.405Z,2.10
2019-01-02T04:46:33.343Z,2.33
2019-01-02T04:49:02.204Z,1.90
2019-01-02T04:51:31.000Z,2.50
2019-01-02T04:53:59.837Z,2.40
2019-01-02T04:56:28.703Z,2.85
2019-01-02T04:58:57.564Z,2.17
2019-01-02T05:01:26.441Z,2.25
2019-01-02T05:03:55.368Z,2.03
2019-01-02T05:06:24.283Z,2.50
2019-01-02T05:08:53.092Z,2.20
2019-01-02T05:11:21.911Z,2.00
2019-01-02T05:13:50.763Z,2.55
2019-01-02T05:16:19.614Z,2.83
2019-01-02T05:18:48.414Z,2.42
2019-01-02T05:21:17.205Z,2.60
2019-01-02T05:23:46.066Z,2.92
2019-01-02T05:26:14.920Z,2.55
2019-01-02T05:28:43.729Z,2.27
2019-01-02T05:31:12.647Z,3.10
2019-01-02T05:33:41.502Z,2.30
2019-01-02T05:36:10.443Z,3.00
2019-01-02T05:38:39.256Z,2.77
2019-01-02T05:41:08.024Z,2.50
2019-01-02T05:43:36.799Z,2.62
2019-01-02T05:46:05.637Z,2.62
2019-01-02T05:48:34.452Z,1.87
2019-01-02T05:51:03.246Z,2.00
2019-01-02T05:53:32.066Z,2.42
2019-01-02T05:56:00.898Z,2.40
2019-01-02T05:58:29.878Z,2.77
2019-01-02T06:00:58.807Z,2.10
2019-01-02T06:03:27.648Z,2.40
2019-01-02T06:05:56.435Z,2.60
2019-01-02T06:08:28.160Z,2.00
2019-01-02T06:10:57.449Z,2.33
2019-01-02T06:13:26.399Z,3.00
2019-01-02T06:15:55.238Z,2.95
2019-01-02T06:18:24.141Z,2.60
2019-01-02T06:20:52.923Z,2.22
2019-01-02T06:23:21.761Z,2.45
2019-01-02T06:25:50.631Z,2.25
2019-01-02T06:28:19.489Z,2.85
2019-01-02T06:30:48.665Z,2.20
2019-01-02T06:33:17.537Z,2.40
2019-01-02T06:35:46.508Z,2.40
2019-01-02T06:38:15.483Z,2.17
2019-01-02T06:40:44.519Z,2.50
2019-01-02T06:43:15.250Z,2.50
2019-01-02T06:45:44.092Z,2.00
2019-01-02T06:48:13.001Z,2.45
2019-01-02T06:50:41.838Z,2.47
2019-01-02T06:53:10.715Z,2.70
2019-01-02T06:55:39.719Z,1.90
2019-01-02T06:58:08.709Z,2.40
2019-01-02T07:00:40.036Z,1.95
2019-01-02T07:03:08.841Z,1.80
2019-01-02T07:05:37.800Z,2.20
2019-01-02T07:08:06.562Z,2.30
2019-01-02T07:10:35.512Z,2.20
2019-01-02T07:13:04.432Z,2.30
2019-01-02T07:15:33.514Z,1.85
2019-01-02T07:18:02.456Z,2.27
2019-01-02T07:20:31.259Z,1.80
2019-01-02T07:23:00.115Z,2.02
2019-01-02T07:25:28.909Z,1.95
2019-01-02T07:27:57.893Z,2.05
2019-01-02T07:30:27.246Z,1.90
2019-01-02T07:32:56.102Z,2.17
2019-01-02T07:36:05.580Z,2.50
2019-01-02T07:38:51.167Z,2.25
2019-01-02T07:42:06.435Z,1.87
2019-01-02T07:45:23.913Z,2.40
2019-01-02T07:48:26.605Z,2.12
2019-01-02T07:51:29.483Z,2.33
2019-01-02T07:54:57.898Z,1.92
2019-01-02T07:58:17.283Z,2.12
2019-01-02T08:01:26.255Z,1.32
2019-01-02T08:04:31.295Z,1.70
2019-01-02T08:07:53.886Z,1.87
2019-01-02T08:11:05.302Z,1.90
2019-01-02T08:13:58.890Z,1.57
2019-01-02T08:16:55.270Z,1.35
2019-01-02T08:19:37.909Z,1.60
2019-01-02T08:22:47.947Z,1.70
2019-01-02T08:25:42.327Z,2.22
2019-01-02T08:28:42.135Z,1.80
2019-01-02T08:31:45.121Z,1.55
2019-01-02T08:34:53.828Z,1.45
2019-01-02T08:38:12.783Z,1.90
2019-01-02T08:41:30.969Z,1.50
2019-01-02T08:44:39.716Z,2.00
2019-01-02T08:47:42.812Z,1.70
2019-01-02T08:50:49.322Z,1.57
2019-01-02T08:53:50.177Z,2.20
2019-01-02T08:56:58.228Z,2.00
2019-01-02T08:59:56.088Z,2.50
2019-01-02T09:03:03.505Z,2.00
2019-01-02T09:06:24.621Z,2.00
2019-01-02T09:09:28.645Z,1.37
2019-01-02T09:12:26.441Z,1.77
2019-01-02T09:15:18.848Z,1.70
2019-01-02T09:18:24.656Z,1.40
2019-01-02T09:21:43.514Z,1.60
2019-01-02T09:24:48.318Z,1.65
2019-01-02T09:27:43.174Z,1.32
2019-01-02T09:31:23.932Z,1.10
2019-01-02T09:34:07.920Z,1.57
2019-01-02T09:37:06.660Z,1.67
2019-01-02T09:40:11.444Z,1.15
2019-01-02T09:43:26.780Z,1.20
2019-01-02T09:46:30.388Z,1.20
2019-01-02T09:49:25.318Z,1.00
2019-01-02T09:52:33.856Z,1.07
2019-01-02T09:55:31.068Z,1.70
2019-01-02T09:58:37.178Z,1.40
2019-01-02T10:01:26.685Z,1.52
2019-01-02T10:04:45.829Z,2.10
2019-01-02T10:07:41.127Z,1.20
2019-01-02T10:10:38.753Z,1.25
2019-01-02T10:13:41.313Z,1.50
2019-01-02T10:16:46.453Z,1.20
2019-01-02T10:19:36.831Z,1.40
2019-01-02T10:22:38.605Z,1.43
2019-01-02T10:25:21.034Z,1.72
2019-01-02T10:28:35.874Z,1.20
2019-01-02T10:31:35.842Z,1.42
2019-01-02T10:34:57.111Z,2.50
2019-01-02T10:37:46.120Z,1.70
2019-01-02T10:40:51.048Z,1.50
2019-01-02T10:43:37.948Z,1.47
2019-01-02T10:46:43.646Z,1.40
2019-01-02T10:49:34.969Z,1.60
2019-01-02T10:52:39.904Z,1.50
2019-01-02T10:55:50.322Z,2.60
2019-01-02T10:58:52.102Z,1.30
2019-01-02T11:01:54.958Z,1.30
2019-01-02T11:04:50.281Z,1.50
2019-01-02T11:08:21.388Z,1.40
2019-01-02T11:11:29.043Z,1.20
2019-01-02T11:14:53.338Z,1.50
2019-01-02T11:17:49.184Z,1.40
2019-01-02T11:21:03.227Z,1.15
2019-01-02T11:24:22.778Z,1.20
2019-01-02T11:27:27.578Z,1.25
2019-01-02T11:30:39.595Z,1.10
2019-01-02T11:33:45.903Z,0.90
2019-01-02T11:36:50.467Z,1.00
2019-01-02T11:39:58.644Z,1.30
2019-01-02T11:42:50.995Z,1.17
2019-01-02T11:45:19.795Z,1.17
2019-01-02T11:47:48.942Z,1.20
2019-01-02T11:50:17.774Z,1.02
2019-01-02T11:52:46.765Z,1.82
2019-01-02T11:55:15.691Z,0.90
2019-01-02T11:57:44.639Z,0.90
2019-01-02T12:00:15.961Z,0.90
2019-01-02T12:02:44.796Z,1.10
2019-01-02T12:05:14.086Z,1.10
2019-01-02T12:07:42.933Z,0.80
2019-01-02T12:10:13.526Z,1.00
2019-01-02T12:12:42.447Z,1.60
2019-01-02T12:15:11.589Z,0.90
2019-01-02T12:17:40.431Z,0.90
2019-01-02T12:20:10.787Z,2.70
2019-01-02T12:22:39.655Z,1.00
2019-01-02T12:25:08.588Z,0.90
2019-01-02T12:27:37.379Z,0.70
2019-01-02T12:30:12.301Z,0.80
2019-01-02T12:32:41.211Z,0.80
2019-01-02T12:35:10.087Z,0.80
2019-01-02T12:37:38.900Z,0.70
2019-01-02T12:40:08.812Z,1.00
2019-01-02T12:42:37.657Z,0.60
2019-01-02T12:45:07.276Z,0.70
2019-01-02T12:47:36.063Z,0.90
2019-01-02T12:50:06.501Z,0.60
2019-01-02T12:52:35.429Z,0.70
2019-01-02T12:55:04.719Z,1.00
2019-01-02T12:57:33.643Z,0.80
2019-01-02T13:00:02.495Z,0.70
2019-01-02T13:03:10.561Z,1.20
2019-01-02T13:06:23.541Z,0.80
2019-01-02T13:09:37.730Z,1.10
2019-01-02T13:12:50.711Z,1.10
2019-01-02T13:15:51.558Z,1.40
2019-01-02T13:19:16.571Z,1.30
2019-01-02T13:22:35.569Z,1.00
2019-01-02T13:25:39.110Z,1.22
2019-01-02T13:28:32.844Z,1.00
2019-01-02T13:31:36.970Z,1.10
2019-01-02T13:34:43.154Z,1.00
2019-01-02T13:37:29.130Z,1.13
2019-01-02T13:40:26.624Z,1.10
2019-01-02T13:43:24.427Z,1.20
2019-01-02T13:46:20.933Z,1.10
2019-01-02T13:49:10.488Z,1.00
2019-01-02T13:51:43.556Z,1.07
2019-01-02T13:54:12.601Z,1.10
2019-01-02T13:56:41.604Z,0.90
2019-01-02T13:59:10.426Z,1.07
2019-01-02T14:01:39.314Z,1.10
2019-01-02T14:04:09.483Z,1.20
2019-01-02T14:06:38.296Z,1.90
2019-01-02T14:09:09.859Z,1.22
2019-01-02T14:11:38.686Z,1.50
2019-01-02T14:14:07.453Z,1.20
2019-01-02T14:16:36.232Z,2.05
2019-01-02T14:19:05.165Z,1.20
2019-01-02T14:21:34.052Z,1.40
2019-01-02T14:24:02.858Z,1.52
2019-01-02T14:26:31.671Z,1.50
2019-01-02T14:29:00.679Z,1.60
2019-01-02T14:31:29.640Z,1.70
2019-01-02T14:33:58.452Z,1.40
2019-01-02T14:36:27.460Z,1.70
2019-01-02T14:38:56.367Z,1.35
2019-01-02T14:41:25.263Z,1.45
2019-01-02T14:43:55.885Z,1.65
2019-01-02T14:46:24.824Z,1.30
2019-01-02T14:48:53.773Z,1.22
2019-01-02T14:51:22.586Z,1.22
2019-01-02T14:53:51.414Z,1.70
2019-01-02T14:56:20.192Z,1.40
2019-01-02T14:58:49.119Z,1.40
2019-01-02T15:01:17.955Z,1.52
2019-01-02T15:03:46.827Z,1.53
2019-01-02T15:06:15.622Z,1.70
2019-01-02T15:08:44.532Z,1.50
2019-01-02T15:11:13.365Z,1.22
2019-01-02T15:13:42.207Z,1.10
2019-01-02T15:16:11.221Z,1.80
2019-01-02T15:18:40.021Z,1.50
2019-01-02T15:21:08.869Z,1.45
2019-01-02T15:23:37.802Z,1.70
2019-01-02T15:26:06.589Z,1.70
2019-01-02T15:28:35.553Z,1.30
2019-01-02T15:31:04.516Z,1.57
2019-01-02T15:33:33.438Z,1.60
2019-01-02T15:36:02.486Z,1.20
2019-01-02T15:38:31.542Z,1.30
2019-01-02T15:41:00.726Z,2.00
2019-01-02T15:43:29.519Z,1.27
2019-01-02T15:45:58.362Z,1.50
2019-01-02T15:48:27.242Z,1.70
2019-01-02T15:50:56.107Z,1.47
2019-01-02T15:53:25.273Z,1.60
2019-01-02T15:55:54.137Z,1.40
2019-01-02T15:58:23.093Z,1.40
2019-01-02T16:00:52.211Z,1.37
2019-01-02T16:03:21.182Z,1.40
2019-01-02T16:05:53.123Z,1.20
2019-01-02T16:08:21.987Z,1.40
2019-01-02T16:10:50.910Z,1.40
2019-01-02T16:13:19.836Z,1.30
2019-01-02T16:15:48.787Z,1.20
2019-01-02T16:18:17.680Z,1.87
2019-01-02T16:20:46.821Z,1.70
2019-01-02T16:23:15.615Z,1.12
2019-01-02T16:25:44.485Z,1.45
2019-01-02T16:28:13.470Z,1.40
2019-01-02T16:30:42.362Z,1.05
2019-01-02T16:33:11.308Z,1.77
2019-01-02T16:35:40.317Z,1.20
2019-01-02T16:38:09.139Z,1.40
2019-01-02T16:40:38.004Z,1.10
2019-01-02T16:43:06.788Z,1.07
2019-01-02T16:45:35.815Z,0.82
2019-01-02T16:48:04.837Z,1.30
2019-01-02T16:50:33.779Z,0.90
2019-01-02T16:53:02.601Z,1.10
2019-01-02T16:55:31.388Z,1.15
2019-01-02T16:58:00.307Z,1.10
2019-01-02T17:00:29.308Z,1.10
2019-01-02T17:02:58.227Z,1.10
2019-01-02T17:05:27.175Z,1.20
2019-01-02T17:07:56.527Z,1.25
2019-01-02T17:10:25.302Z,8.38
2019-01-02T17:12:54.177Z,1.00
2019-01-02T17:15:23.035Z,1.10
2019-01-02T17:17:52.031Z,1.10
2019-01-02T17:20:20.943Z,1.03
2019-01-02T17:22:49.910Z,0.90
2019-01-02T17:25:18.684Z,0.90
2019-01-02T17:27:47.526Z,1.10
2019-01-02T17:30:16.571Z,1.30
2019-01-02T17:32:45.415Z,1.12
2019-01-02T17:35:14.215Z,0.90
2019-01-02T17:37:43.210Z,1.30
2019-01-02T17:40:12.005Z,1.10
2019-01-02T17:42:40.858Z,1.30
2019-01-02T17:45:10.006Z,1.30
2019-01-02T17:47:38.822Z,1.35
2019-01-02T17:50:09.388Z,1.20
2019-01-02T17:52:38.292Z,1.30
2019-01-02T17:55:07.188Z,1.60
2019-01-02T17:57:36.055Z,1.20
2019-01-02T18:00:07.519Z,1.05
2019-01-02T18:02:36.398Z,1.50
2019-01-02T18:05:05.635Z,1.20
2019-01-02T18:07:34.471Z,1.45
2019-01-02T18:10:03.906Z,1.20
2019-01-02T18:12:32.859Z,1.55
2019-01-02T18:15:01.859Z,1.70
2019-01-02T18:17:30.721Z,1.90
2019-01-02T18:19:59.646Z,1.50
2019-01-02T18:22:28.445Z,1.40
2019-01-02T18:24:57.255Z,1.60
2019-01-02T18:27:26.206Z,1.35
2019-01-02T18:29:55.099Z,1.50
2019-01-02T18:32:23.927Z,2.00
2019-01-02T18:34:52.795Z,2.00
2019-01-02T18:37:22.189Z,1.62
2019-01-02T18:39:51.036Z,2.25
2019-01-02T18:42:19.906Z,2.08
2019-01-02T18:44:48.654Z,2.17
2019-01-02T18:47:17.436Z,2.10
2019-01-02T18:49:46.442Z,1.70
2019-01-02T18:52:15.573Z,1.80
2019-01-02T18:54:44.483Z,2.50
2019-01-02T18:57:13.262Z,2.72
2019-01-02T18:59:42.143Z,1.80
2019-01-02T19:02:10.985Z,2.30
2019-01-02T19:04:39.866Z,1.75
2019-01-02T19:07:08.840Z,2.40
2019-01-02T19:09:37.669Z,2.00
2019-01-02T19:12:06.685Z,1.63
2019-01-02T19:14:35.758Z,2.00
2019-01-02T19:17:04.576Z,1.80
2019-01-02T19:19:33.425Z,2.40
2019-01-02T19:22:02.311Z,2.00
2019-01-02T19:24:31.136Z,2.83
2019-01-02T19:27:00.164Z,2.87
2019-01-02T19:29:28.944Z,2.77
2019-01-02T19:31:57.727Z,2.00
2019-01-02T19:34:26.485Z,2.05
2019-01-02T19:36:55.310Z,2.47
2019-01-02T19:39:24.093Z,3.98
2019-01-02T19:41:53.424Z,2.10
2019-01-02T19:44:22.410Z,2.50
2019-01-02T19:46:51.305Z,2.45
2019-01-02T19:49:20.317Z,1.98
2019-01-02T19:51:49.189Z,2.30
2019-01-02T19:54:18.066Z,3.10
2019-01-02T19:56:47.023Z,2.90
2019-01-02T19:59:16.099Z,2.20
2019-01-02T20:01:45.081Z,2.30
2019-01-02T20:04:13.981Z,3.85
2019-01-02T20:06:42.811Z,4.20
2019-01-02T20:09:11.691Z,4.10
2019-01-02T20:11:40.679Z,2.72
2019-01-02T20:14:10.825Z,3.27
2019-01-02T20:16:40.833Z,3.33
2019-01-02T20:19:10.061Z,2.27
2019-01-02T20:21:38.944Z,2.75
2019-01-02T20:24:07.796Z,2.85
2019-01-02T20:26:36.954Z,2.57
2019-01-02T20:29:05.882Z,2.65
2019-01-02T20:31:34.901Z,2.20
2019-01-02T20:34:03.963Z,1.82
2019-01-02T20:36:32.792Z,2.20
2019-01-02T20:39:01.593Z,2.10
2019-01-02T20:41:32.967Z,2.00
2019-01-02T20:44:02.328Z,2.10
2019-01-02T20:46:31.134Z,2.65
2019-01-02T20:49:00.107Z,2.00
2019-01-02T20:51:28.956Z,2.07
2019-01-02T20:53:58.013Z,2.10
2019-01-02T20:56:26.849Z,1.80
2019-01-02T20:58:55.740Z,2.60
2019-01-02T21:01:24.565Z,2.20
2019-01-02T21:03:53.526Z,2.62
2019-01-02T21:06:22.427Z,2.20
2019-01-02T21:08:52.166Z,2.35
2019-01-02T21:11:21.079Z,2.50
2019-01-02T21:13:50.932Z,2.30
2019-01-02T21:16:19.857Z,2.90
2019-01-02T21:18:48.820Z,2.10
2019-01-02T21:21:17.652Z,2.33
2019-01-02T21:23:46.607Z,2.35
2019-01-02T21:26:15.459Z,2.22
2019-01-02T21:28:44.353Z,2.22
2019-01-02T21:31:13.515Z,2.17
2019-01-02T21:33:42.353Z,7.83
2019-01-02T21:36:11.305Z,5.15
2019-01-02T21:38:40.471Z,2.40
2019-01-02T21:41:09.428Z,2.40
2019-01-02T21:43:38.331Z,2.20
2019-01-02T21:46:07.372Z,2.10
2019-01-02T21:48:41.248Z,2.30
2019-01-02T21:51:06.910Z,2.00
2019-01-02T21:53:35.941Z,2.40
2019-01-02T21:56:05.024Z,2.53
2019-01-02T21:58:33.919Z,2.90
2019-01-02T22:01:02.731Z,2.52
2019-01-02T22:03:31.705Z,2.90
2019-01-02T22:06:00.848Z,2.25
2019-01-02T22:08:29.839Z,2.60
2019-01-02T22:10:59.125Z,2.17
2019-01-02T22:13:28.001Z,2.22
2019-01-02T22:15:56.891Z,2.83
2019-01-02T22:18:25.681Z,2.40
2019-01-02T22:20:54.582Z,2.02
2019-01-02T22:23:23.501Z,2.87
2019-01-02T22:25:52.349Z,2.70
2019-01-02T22:28:21.485Z,2.60
2019-01-02T22:30:50.458Z,2.27
2019-01-02T22:33:19.288Z,2.30
2019-01-02T22:35:48.115Z,2.17
2019-01-02T22:38:17.074Z,2.60
2019-01-02T22:40:45.931Z,2.40
2019-01-02T22:43:15.034Z,2.85
2019-01-02T22:45:43.928Z,2.67
2019-01-02T22:48:12.778Z,2.50
2019-01-02T22:50:41.603Z,2.10
2019-01-02T22:53:10.462Z,2.08
2019-01-02T22:55:39.276Z,2.70
2019-01-02T22:58:08.171Z,2.47
2019-01-02T23:00:55.569Z,2.47
2019-01-02T23:03:49.823Z,2.30
2019-01-02T23:06:36.789Z,2.62
2019-01-02T23:09:31.561Z,4.20
2019-01-02T23:12:35.133Z,2.90
2019-01-02T23:15:26.251Z,2.52
2019-01-02T23:18:20.229Z,2.40
2019-01-02T23:21:07.258Z,2.05
2019-01-02T23:23:58.505Z,1.80
2019-01-02T23:26:45.488Z,2.20
2019-01-02T23:29:42.706Z,2.20
2019-01-02T23:32:46.006Z,2.43
2019-01-02T23:35:37.932Z,1.80
2019-01-02T23:38:24.946Z,2.15
2019-01-02T23:41:10.951Z,2.85
2019-01-02T23:43:58.936Z,1.80
2019-01-02T23:46:57.683Z,2.55
2019-01-02T23:49:45.934Z,2.05
2019-01-02T23:52:32.544Z,2.40
2019-01-02T23:55:19.461Z,2.30
2019-01-02T23:58:05.992Z,2.37
